Time;durP1;ratioP1;P1;durP2;ratioP2;P2;SDS_P1;SDS_P2;PMS_P1;PMS_P2;Temp;Humidity;BMP_temperature;BMP_pressure;BME280_temperature;BME280_humidity;BME280_pressure;Samples;Min_cycle;Max_cycle;Signal;HPM_P1;HPM_P2
2020/09/08 00:01:24;;;;;;;1.40;1.29;;;;;;;20.47;63.67;101374.62;;;;-52
2020/09/08 00:04:24;;;;;;;1.63;1.49;;;;;;;20.47;63.67;101374.78;;;;-54
2020/09/08 00:07:24;;;;;;;1.59;1.42;;;;;;;20.47;63.68;101374.38;;;;-54
2020/09/08 00:10:24;;;;;;;1.63;1.50;;;;;;;20.46;63.66;101374.91;;;;-53
2020/09/08 00:13:24;;;;;;;2.03;1.43;;;;;;;20.46;63.68;101380.20;;;;-54
2020/09/08 00:16:24;;;;;;;1.49;1.32;;;;;;;20.45;63.71;101373.77;;;;-54
2020/09/08 00:19:24;;;;;;;2.18;1.50;;;;;;;20.44;63.70;101376.70;;;;-54
2020/09/08 00:22:24;;;;;;;1.73;1.44;;;;;;;20.45;63.67;101375.97;;;;-54
2020/09/08 00:25:24;;;;;;;1.59;1.47;;;;;;;20.44;63.68;101369.54;;;;-54
2020/09/08 00:28:24;;;;;;;1.46;1.36;;;;;;;20.44;63.68;101371.90;;;;-54
2020/09/08 00:31:24;;;;;;;1.53;1.43;;;;;;;20.44;63.70;101370.48;;;;-54
2020/09/08 00:34:24;;;;;;;2.14;1.40;;;;;;;20.44;63.68;101368.20;;;;-53
2020/09/08 00:37:24;;;;;;;1.66;1.56;;;;;;;20.44;63.64;101364.63;;;;-54
2020/09/08 00:40:24;;;;;;;1.59;1.49;;;;;;;20.43;63.68;101368.94;;;;-54
2020/09/08 00:43:24;;;;;;;1.94;1.45;;;;;;;20.43;63.70;101370.97;;;;-54
2020/09/08 00:46:24;;;;;;;1.81;1.57;;;;;;;20.42;63.72;101369.26;;;;-54
2020/09/08 00:49:24;;;;;;;1.80;1.37;;;;;;;20.41;63.73;101370.69;;;;-54
2020/09/08 00:52:24;;;;;;;1.89;1.38;;;;;;;20.42;63.71;101374.03;;;;-54
2020/09/08 00:55:24;;;;;;;2.33;1.58;;;;;;;20.41;63.73;101371.59;;;;-54
2020/09/08 00:58:24;;;;;;;1.50;1.40;;;;;;;20.41;63.73;101371.18;;;;-54
2020/09/08 01:01:24;;;;;;;1.83;1.39;;;;;;;20.41;63.69;101368.00;;;;-53
2020/09/08 01:04:24;;;;;;;1.50;1.40;;;;;;;20.40;63.71;101367.68;;;;-54
2020/09/08 01:08:23;;;;;;;1.40;1.30;;;;;;;20.41;63.68;101367.44;;;;-54
2020/09/08 01:12:24;;;;;;;1.52;1.40;;;;;;;20.39;63.68;101365.28;;;;-54
2020/09/08 01:15:24;;;;;;;1.52;1.42;;;;;;;20.39;63.67;101365.45;;;;-54
2020/09/08 01:18:24;;;;;;;1.55;1.40;;;;;;;20.39;63.71;101365.53;;;;-54
2020/09/08 01:21:24;;;;;;;1.57;1.45;;;;;;;20.40;63.71;101365.69;;;;-54
2020/09/08 01:24:24;;;;;;;1.60;1.50;;;;;;;20.40;63.67;101364.34;;;;-54
2020/09/08 01:27:24;;;;;;;1.77;1.50;;;;;;;20.39;63.66;101361.30;;;;-54
2020/09/08 01:30:24;;;;;;;1.50;1.40;;;;;;;20.39;63.71;101359.42;;;;-54
2020/09/08 01:33:24;;;;;;;1.55;1.43;;;;;;;20.39;63.68;101354.45;;;;-54
2020/09/08 01:36:23;;;;;;;1.53;1.43;;;;;;;20.38;63.68;101351.61;;;;-54
2020/09/08 01:39:23;;;;;;;2.01;1.40;;;;;;;20.38;63.73;101352.50;;;;-54
2020/09/08 01:42:24;;;;;;;1.55;1.45;;;;;;;20.38;63.65;101351.81;;;;-54
2020/09/08 01:45:24;;;;;;;1.76;1.46;;;;;;;20.37;63.68;101352.88;;;;-54
2020/09/08 01:48:24;;;;;;;1.43;1.30;;;;;;;20.37;63.66;101353.69;;;;-54
2020/09/08 01:51:23;;;;;;;1.87;1.40;;;;;;;20.37;63.65;101354.18;;;;-54
2020/09/08 01:54:24;;;;;;;1.51;1.41;;;;;;;20.38;63.65;101360.80;;;;-54
2020/09/08 01:57:24;;;;;;;1.99;1.40;;;;;;;20.38;63.64;101360.72;;;;-54
2020/09/08 02:00:24;;;;;;;1.57;1.47;;;;;;;20.38;63.67;101368.30;;;;-54
2020/09/08 02:03:23;;;;;;;1.52;1.42;;;;;;;20.36;63.67;101369.48;;;;-54
2020/09/08 02:06:24;;;;;;;2.04;1.56;;;;;;;20.36;63.72;101368.91;;;;-54
2020/09/08 02:09:23;;;;;;;1.51;1.40;;;;;;;20.36;63.68;101371.92;;;;-54
2020/09/08 02:12:24;;;;;;;1.47;1.37;;;;;;;20.35;63.71;101371.08;;;;-53
2020/09/08 02:15:24;;;;;;;1.57;1.44;;;;;;;20.37;63.65;101369.41;;;;-54
2020/09/08 02:18:23;;;;;;;1.59;1.49;;;;;;;20.37;63.63;101370.30;;;;-54
2020/09/08 02:21:24;;;;;;;1.51;1.32;;;;;;;20.37;63.64;101369.32;;;;-55
2020/09/08 02:24:23;;;;;;;1.64;1.30;;;;;;;20.37;63.61;101368.09;;;;-54
2020/09/08 02:27:24;;;;;;;1.46;1.36;;;;;;;20.36;63.63;101367.45;;;;-54
2020/09/08 02:30:23;;;;;;;1.50;1.40;;;;;;;20.35;63.63;101368.14;;;;-54
2020/09/08 02:33:23;;;;;;;2.01;1.41;;;;;;;20.36;63.63;101370.50;;;;-54
2020/09/08 02:36:23;;;;;;;1.69;1.47;;;;;;;20.35;63.63;101369.69;;;;-53
2020/09/08 02:39:23;;;;;;;1.51;1.41;;;;;;;20.36;63.62;101369.48;;;;-54
2020/09/08 02:42:23;;;;;;;1.50;1.40;;;;;;;20.36;63.62;101367.61;;;;-54
2020/09/08 02:45:24;;;;;;;1.60;1.50;;;;;;;20.36;63.60;101372.95;;;;-54
2020/09/08 02:48:23;;;;;;;1.50;1.40;;;;;;;20.35;63.64;101371.08;;;;-54
2020/09/08 02:51:23;;;;;;;1.45;1.35;;;;;;;20.35;63.63;101374.98;;;;-54
2020/09/08 02:54:23;;;;;;;1.50;1.33;;;;;;;20.36;63.57;101374.77;;;;-54
2020/09/08 02:57:23;;;;;;;1.82;1.40;;;;;;;20.35;63.58;101372.63;;;;-54
2020/09/08 03:00:24;;;;;;;1.59;1.39;;;;;;;20.35;63.59;101370.83;;;;-55
2020/09/08 03:03:23;;;;;;;1.63;1.50;;;;;;;20.34;63.69;101371.16;;;;-54
2020/09/08 03:06:23;;;;;;;1.50;1.40;;;;;;;20.34;63.60;101367.57;;;;-54
2020/09/08 03:09:23;;;;;;;1.50;1.40;;;;;;;20.34;63.64;101370.50;;;;-54
2020/09/08 03:12:23;;;;;;;1.60;1.50;;;;;;;20.32;63.63;101368.11;;;;-54
2020/09/08 03:15:23;;;;;;;1.40;1.30;;;;;;;20.33;63.60;101369.17;;;;-54
2020/09/08 03:18:23;;;;;;;1.51;1.40;;;;;;;20.33;63.61;101367.12;;;;-54
2020/09/08 03:21:23;;;;;;;1.40;1.30;;;;;;;20.32;63.61;101369.81;;;;-54
2020/09/08 03:24:23;;;;;;;1.63;1.31;;;;;;;20.33;63.63;101369.81;;;;-54
2020/09/08 03:27:23;;;;;;;1.47;1.37;;;;;;;20.33;63.61;101374.13;;;;-54
2020/09/08 03:30:24;;;;;;;1.65;1.55;;;;;;;20.32;63.61;101374.05;;;;-54
2020/09/08 03:33:24;;;;;;;1.40;1.30;;;;;;;20.33;63.61;101381.87;;;;-54
2020/09/08 03:36:23;;;;;;;1.50;1.40;;;;;;;20.31;63.59;101378.17;;;;-54
2020/09/08 03:39:23;;;;;;;1.45;1.31;;;;;;;20.32;63.64;101377.39;;;;-53
2020/09/08 03:42:23;;;;;;;1.47;1.37;;;;;;;20.32;63.63;101377.62;;;;-54
2020/09/08 03:45:23;;;;;;;2.03;1.51;;;;;;;20.31;63.61;101376.63;;;;-54
2020/09/08 03:48:23;;;;;;;1.44;1.34;;;;;;;20.29;63.62;101370.92;;;;-53
2020/09/08 03:51:24;;;;;;;1.58;1.48;;;;;;;20.30;63.62;101372.47;;;;-54
2020/09/08 03:54:23;;;;;;;1.43;1.33;;;;;;;20.31;63.63;101378.00;;;;-54
2020/09/08 03:57:23;;;;;;;1.50;1.40;;;;;;;20.29;63.66;101382.20;;;;-54
2020/09/08 04:00:23;;;;;;;1.58;1.40;;;;;;;20.29;63.66;101383.78;;;;-54
2020/09/08 04:03:23;;;;;;;1.52;1.40;;;;;;;20.29;63.66;101383.91;;;;-54
2020/09/08 04:06:23;;;;;;;2.17;1.39;;;;;;;20.29;63.62;101380.03;;;;-54
2020/09/08 04:09:24;;;;;;;1.49;1.39;;;;;;;20.29;63.64;101377.07;;;;-54
2020/09/08 04:12:23;;;;;;;1.59;1.49;;;;;;;20.29;63.58;101382.20;;;;-54
2020/09/08 04:15:23;;;;;;;1.50;1.40;;;;;;;20.29;63.59;101388.71;;;;-54
2020/09/08 04:18:23;;;;;;;1.45;1.35;;;;;;;20.29;63.58;101390.83;;;;-53
2020/09/08 04:21:23;;;;;;;1.40;1.30;;;;;;;20.28;63.52;101394.89;;;;-54
2020/09/08 04:24:23;;;;;;;1.50;1.40;;;;;;;20.29;63.58;101396.77;;;;-54
2020/09/08 04:27:23;;;;;;;1.50;1.39;;;;;;;20.29;63.58;101397.59;;;;-54
2020/09/08 04:30:23;;;;;;;1.50;1.40;;;;;;;20.28;63.60;101395.55;;;;-54
2020/09/08 04:33:23;;;;;;;1.38;1.28;;;;;;;20.28;63.56;101397.83;;;;-54
2020/09/08 04:36:23;;;;;;;1.49;1.39;;;;;;;20.28;63.56;101397.26;;;;-53
2020/09/08 04:39:23;;;;;;;1.49;1.39;;;;;;;20.28;63.54;101403.28;;;;-57
2020/09/08 04:42:23;;;;;;;1.50;1.40;;;;;;;20.28;63.56;101404.26;;;;-56
2020/09/08 04:45:24;;;;;;;1.52;1.42;;;;;;;20.28;63.51;101406.95;;;;-56
2020/09/08 04:48:23;;;;;;;1.74;1.31;;;;;;;20.28;63.58;101415.25;;;;-56
2020/09/08 04:51:23;;;;;;;1.54;1.44;;;;;;;20.28;63.56;101420.54;;;;-55
2020/09/08 04:54:23;;;;;;;1.44;1.34;;;;;;;20.27;63.60;101423.80;;;;-56
2020/09/08 04:57:23;;;;;;;1.51;1.41;;;;;;;20.28;63.59;101423.22;;;;-56
2020/09/08 05:00:23;;;;;;;1.52;1.42;;;;;;;20.27;63.60;101425.26;;;;-56
2020/09/08 05:03:23;;;;;;;1.83;1.37;;;;;;;20.27;63.62;101427.26;;;;-56
2020/09/08 05:06:23;;;;;;;1.49;1.30;;;;;;;20.27;63.61;101431.66;;;;-56
2020/09/08 05:09:23;;;;;;;1.50;1.40;;;;;;;20.27;63.64;101436.95;;;;-56
2020/09/08 05:12:24;;;;;;;1.51;1.41;;;;;;;20.27;63.60;101438.82;;;;-57
2020/09/08 05:15:23;;;;;;;1.40;1.30;;;;;;;20.27;63.64;101443.81;;;;-57
2020/09/08 05:18:23;;;;;;;2.91;1.55;;;;;;;20.28;63.57;101448.87;;;;-57
2020/09/08 05:21:23;;;;;;;4.23;2.17;;;;;;;20.04;54.96;101450.59;;;;-57
2020/09/08 05:24:23;;;;;;;4.03;2.51;;;;;;;19.76;53.97;101451.91;;;;-56
2020/09/08 05:27:23;;;;;;;3.25;2.60;;;;;;;19.46;53.96;101453.84;;;;-55
2020/09/08 05:30:23;;;;;;;2.79;2.53;;;;;;;19.27;53.96;101453.63;;;;-56
2020/09/08 05:33:23;;;;;;;5.90;2.94;;;;;;;19.10;54.19;101456.90;;;;-57
2020/09/08 05:36:24;;;;;;;3.04;2.33;;;;;;;19.01;53.97;101461.33;;;;-57
2020/09/08 05:39:23;;;;;;;4.51;2.26;;;;;;;18.93;55.39;101460.22;;;;-55
2020/09/08 05:42:23;;;;;;;4.39;2.43;;;;;;;19.03;56.47;101463.45;;;;-56
2020/09/08 05:45:23;;;;;;;4.50;2.30;;;;;;;19.14;57.87;101467.80;;;;-56
2020/09/08 05:48:23;;;;;;;2.91;2.09;;;;;;;19.23;57.93;101471.83;;;;-55
2020/09/08 05:51:23;;;;;;;4.59;2.24;;;;;;;19.32;58.51;101472.67;;;;-56
2020/09/08 05:54:23;;;;;;;3.94;2.20;;;;;;;19.39;58.43;101474.23;;;;-55
2020/09/08 05:57:23;;;;;;;4.06;2.10;;;;;;;19.45;58.76;101476.41;;;;-55
2020/09/08 06:00:23;;;;;;;2.67;2.20;;;;;;;19.49;59.11;101484.71;;;;-56
2020/09/08 06:03:23;;;;;;;3.79;2.09;;;;;;;19.53;59.07;101487.16;;;;-55
2020/09/08 06:06:23;;;;;;;3.28;1.99;;;;;;;19.56;59.23;101488.11;;;;-56
2020/09/08 06:09:23;;;;;;;2.15;1.95;;;;;;;19.58;59.40;101488.16;;;;-56
2020/09/08 06:12:24;;;;;;;2.29;2.01;;;;;;;19.61;59.56;101494.83;;;;-56
2020/09/08 06:15:23;;;;;;;3.21;2.04;;;;;;;19.66;59.76;101494.67;;;;-58
2020/09/08 06:18:23;;;;;;;4.47;2.01;;;;;;;19.72;60.09;101501.67;;;;-52
2020/09/08 06:21:23;;;;;;;8.03;2.28;;;;;;;19.76;60.30;101501.20;;;;-59
2020/09/08 06:24:23;;;;;;;9.69;2.19;;;;;;;19.78;60.49;101505.23;;;;-55
2020/09/08 06:27:24;;;;;;;9.81;2.39;;;;;;;19.82;60.70;101507.72;;;;-56
2020/09/08 06:30:23;;;;;;;11.31;2.33;;;;;;;19.82;60.77;101507.11;;;;-54
2020/09/08 06:33:23;;;;;;;9.74;2.32;;;;;;;19.82;60.77;101504.66;;;;-53
2020/09/08 06:36:23;;;;;;;7.57;2.20;;;;;;;19.84;60.81;101510.69;;;;-53
2020/09/08 06:39:23;;;;;;;7.89;2.22;;;;;;;19.83;60.80;101512.41;;;;-54
2020/09/08 06:42:23;;;;;;;4.45;2.13;;;;;;;19.84;60.92;101520.62;;;;-53
2020/09/08 06:45:23;;;;;;;4.99;2.29;;;;;;;19.84;61.01;101525.37;;;;-53
2020/09/08 06:48:23;;;;;;;5.89;2.20;;;;;;;19.83;61.05;101527.53;;;;-54
2020/09/08 06:51:23;;;;;;;9.01;2.18;;;;;;;19.84;61.06;101532.53;;;;-54
2020/09/08 06:54:23;;;;;;;4.44;2.11;;;;;;;19.85;61.06;101536.92;;;;-54
2020/09/08 06:57:23;;;;;;;4.88;2.15;;;;;;;19.84;61.17;101542.05;;;;-54
2020/09/08 07:00:23;;;;;;;4.51;2.21;;;;;;;19.86;61.17;101547.51;;;;-54
2020/09/08 07:03:23;;;;;;;4.52;2.13;;;;;;;19.87;61.19;101551.94;;;;-54
2020/09/08 07:06:23;;;;;;;5.33;2.18;;;;;;;19.87;61.21;101555.52;;;;-54
2020/09/08 07:09:23;;;;;;;4.71;2.07;;;;;;;19.87;61.26;101553.33;;;;-53
2020/09/08 07:12:23;;;;;;;6.87;2.09;;;;;;;19.88;61.29;101551.25;;;;-53
2020/09/08 07:15:23;;;;;;;4.84;1.89;;;;;;;19.88;61.33;101556.45;;;;-54
2020/09/08 07:18:23;;;;;;;4.31;1.88;;;;;;;19.90;61.30;101553.78;;;;-54
2020/09/08 07:21:23;;;;;;;5.00;1.93;;;;;;;19.92;61.35;101557.81;;;;-54
2020/09/08 07:24:23;;;;;;;3.84;1.91;;;;;;;19.91;61.36;101558.55;;;;-54
2020/09/08 07:27:23;;;;;;;3.24;2.03;;;;;;;19.92;61.38;101559.36;;;;-54
2020/09/08 07:30:23;;;;;;;3.43;2.01;;;;;;;19.91;61.40;101560.33;;;;-54
2020/09/08 07:33:23;;;;;;;3.06;1.99;;;;;;;19.92;61.47;101565.30;;;;-54
2020/09/08 07:36:23;;;;;;;3.25;1.98;;;;;;;19.92;61.48;101559.94;;;;-54
2020/09/08 07:39:23;;;;;;;4.11;1.93;;;;;;;19.93;61.50;101564.36;;;;-53
2020/09/08 07:42:23;;;;;;;5.86;2.13;;;;;;;19.93;61.55;101569.16;;;;-54
2020/09/08 07:45:23;;;;;;;4.43;1.95;;;;;;;19.95;61.55;101567.34;;;;-55
2020/09/08 07:48:23;;;;;;;2.59;1.99;;;;;;;19.95;61.55;101569.05;;;;-54
2020/09/08 07:51:23;;;;;;;3.83;1.90;;;;;;;19.96;61.51;101566.20;;;;-54
2020/09/08 07:54:23;;;;;;;2.75;1.89;;;;;;;19.95;61.57;101564.82;;;;-53
2020/09/08 07:57:23;;;;;;;2.65;1.87;;;;;;;19.95;61.57;101562.86;;;;-52
2020/09/08 08:00:23;;;;;;;2.91;1.99;;;;;;;19.98;61.78;101563.00;;;;-57
2020/09/08 08:03:23;;;;;;;3.96;2.03;;;;;;;19.98;61.87;101559.98;;;;-57
2020/09/08 08:06:23;;;;;;;2.45;1.83;;;;;;;20.01;61.88;101557.95;;;;-58
2020/09/08 08:09:23;;;;;;;3.95;2.05;;;;;;;20.02;62.00;101556.73;;;;-53
2020/09/08 08:12:23;;;;;;;4.16;1.83;;;;;;;20.04;62.08;101554.83;;;;-61
2020/09/08 08:15:23;;;;;;;3.07;1.75;;;;;;;20.05;62.08;101551.53;;;;-53
2020/09/08 08:18:23;;;;;;;2.99;1.97;;;;;;;20.05;62.20;101552.09;;;;-56
2020/09/08 08:21:23;;;;;;;3.65;1.83;;;;;;;20.07;62.26;101550.52;;;;-50
2020/09/08 08:24:23;;;;;;;4.24;1.79;;;;;;;20.09;62.34;101552.76;;;;-50
2020/09/08 08:27:23;;;;;;;3.75;1.72;;;;;;;20.10;62.24;101551.22;;;;-50
2020/09/08 08:30:23;;;;;;;2.83;1.76;;;;;;;20.11;62.21;101549.55;;;;-50
2020/09/08 08:33:23;;;;;;;3.25;1.99;;;;;;;20.11;62.21;101549.63;;;;-51
2020/09/08 08:36:23;;;;;;;3.43;1.99;;;;;;;20.12;62.21;101552.40;;;;-51
2020/09/08 08:39:23;;;;;;;3.63;1.83;;;;;;;20.12;62.18;101551.42;;;;-53
2020/09/08 08:42:23;;;;;;;2.60;1.77;;;;;;;20.11;62.14;101554.10;;;;-53
2020/09/08 08:45:23;;;;;;;3.63;1.86;;;;;;;20.12;62.12;101554.03;;;;-53
2020/09/08 08:48:23;;;;;;;2.68;1.73;;;;;;;20.13;62.12;101557.45;;;;-53
2020/09/08 08:51:23;;;;;;;2.51;1.76;;;;;;;20.13;62.13;101554.68;;;;-53
2020/09/08 08:54:23;;;;;;;3.09;1.76;;;;;;;20.13;62.10;101557.08;;;;-53
2020/09/08 08:57:23;;;;;;;6.41;1.95;;;;;;;20.13;62.08;101551.19;;;;-53
2020/09/08 09:00:23;;;;;;;2.12;1.69;;;;;;;20.14;62.09;101554.31;;;;-53
2020/09/08 09:03:23;;;;;;;2.70;1.73;;;;;;;20.14;62.10;101557.24;;;;-53
2020/09/08 09:06:23;;;;;;;3.40;1.69;;;;;;;20.14;62.13;101558.79;;;;-53
2020/09/08 09:09:23;;;;;;;2.59;1.87;;;;;;;20.14;62.12;101556.84;;;;-53
2020/09/08 09:12:23;;;;;;;3.53;1.63;;;;;;;20.16;62.12;101559.73;;;;-56
2020/09/08 09:15:23;;;;;;;4.41;1.66;;;;;;;20.16;62.24;101562.73;;;;-56
2020/09/08 09:18:23;;;;;;;5.27;1.77;;;;;;;20.17;62.23;101559.16;;;;-50
2020/09/08 09:21:23;;;;;;;2.19;1.61;;;;;;;20.19;62.34;101556.55;;;;-63
2020/09/08 09:24:23;;;;;;;3.87;1.80;;;;;;;20.23;62.35;101554.66;;;;-50
2020/09/08 09:27:23;;;;;;;2.61;1.80;;;;;;;20.25;62.42;101554.37;;;;-51
2020/09/08 09:30:23;;;;;;;10.52;2.03;;;;;;;20.26;62.55;101553.52;;;;-47
2020/09/08 09:33:23;;;;;;;4.07;1.84;;;;;;;20.29;62.57;101555.27;;;;-53
2020/09/08 09:36:24;;;;;;;5.51;1.85;;;;;;;20.31;62.55;101557.75;;;;-52
2020/09/08 09:39:23;;;;;;;8.13;1.90;;;;;;;20.34;62.67;101560.84;;;;-45
2020/09/08 09:42:23;;;;;;;4.25;1.93;;;;;;;20.36;62.54;101554.50;;;;-56
2020/09/08 09:45:23;;;;;;;5.39;1.94;;;;;;;20.36;62.58;101553.03;;;;-49
2020/09/08 09:48:24;;;;;;;6.04;2.03;;;;;;;20.37;62.61;101551.61;;;;-49
2020/09/08 09:51:23;;;;;;;5.31;1.80;;;;;;;20.38;62.60;101553.89;;;;-51
2020/09/08 09:54:23;;;;;;;2.79;1.79;;;;;;;20.37;62.65;101549.09;;;;-57
2020/09/08 09:57:23;;;;;;;8.81;2.09;;;;;;;20.38;62.63;101549.28;;;;-57
2020/09/08 10:00:24;;;;;;;3.75;1.80;;;;;;;20.39;62.63;101549.29;;;;-54
2020/09/08 10:03:23;;;;;;;4.24;2.00;;;;;;;20.40;62.63;101549.48;;;;-53
2020/09/08 10:06:23;;;;;;;6.19;2.03;;;;;;;20.41;62.66;101550.88;;;;-57
2020/09/08 10:09:23;;;;;;;2.83;1.80;;;;;;;20.41;62.62;101549.49;;;;-51
2020/09/08 10:12:23;;;;;;;2.83;1.81;;;;;;;20.42;62.69;101544.53;;;;-48
2020/09/08 10:15:24;;;;;;;7.13;2.10;;;;;;;20.45;62.74;101544.52;;;;-53
2020/09/08 10:18:23;;;;;;;10.26;2.23;;;;;;;20.44;62.74;101542.41;;;;-54
2020/09/08 10:21:23;;;;;;;8.67;1.99;;;;;;;20.44;62.69;101536.38;;;;-56
2020/09/08 10:24:23;;;;;;;6.46;2.03;;;;;;;20.45;62.70;101533.05;;;;-60
2020/09/08 10:27:23;;;;;;;4.37;1.89;;;;;;;20.45;62.72;101529.30;;;;-57
2020/09/08 10:30:23;;;;;;;7.07;1.91;;;;;;;20.47;62.63;101526.24;;;;-48
2020/09/08 10:33:23;;;;;;;5.22;1.90;;;;;;;20.45;62.66;101523.59;;;;-47
2020/09/08 10:36:23;;;;;;;5.43;1.92;;;;;;;20.45;62.65;101521.64;;;;-48
2020/09/08 10:39:23;;;;;;;5.95;1.93;;;;;;;20.44;62.69;101511.70;;;;-48
2020/09/08 10:42:23;;;;;;;7.10;1.91;;;;;;;20.42;62.67;101511.99;;;;-48
2020/09/08 10:45:23;;;;;;;4.11;2.04;;;;;;;20.44;62.64;101509.06;;;;-47
2020/09/08 10:48:23;;;;;;;3.87;1.91;;;;;;;20.42;62.60;101503.28;;;;-47
2020/09/08 10:51:23;;;;;;;4.73;1.79;;;;;;;20.41;62.66;101505.44;;;;-58
2020/09/08 10:54:23;;;;;;;6.72;1.93;;;;;;;20.41;62.63;101497.22;;;;-58
2020/09/08 10:57:23;;;;;;;3.97;1.84;;;;;;;20.40;62.58;101492.73;;;;-58
2020/09/08 11:00:23;;;;;;;4.17;1.74;;;;;;;20.40;62.60;101487.61;;;;-58
2020/09/08 11:03:23;;;;;;;3.73;1.84;;;;;;;20.39;62.62;101482.36;;;;-57
2020/09/08 11:06:23;;;;;;;3.86;1.85;;;;;;;20.39;62.64;101479.76;;;;-58
2020/09/08 11:09:23;;;;;;;4.09;1.93;;;;;;;20.39;62.61;101480.16;;;;-58
2020/09/08 11:12:23;;;;;;;5.10;1.75;;;;;;;20.39;62.58;101474.46;;;;-48
2020/09/08 11:15:23;;;;;;;5.21;1.88;;;;;;;20.42;62.56;101479.67;;;;-54
2020/09/08 11:18:23;;;;;;;7.92;1.94;;;;;;;20.41;62.59;101468.97;;;;-53
2020/09/08 11:21:23;;;;;;;4.44;1.60;;;;;;;20.40;62.57;101463.34;;;;-53
2020/09/08 11:24:23;;;;;;;6.78;1.79;;;;;;;20.40;62.53;101462.42;;;;-53
2020/09/08 11:27:23;;;;;;;4.58;1.70;;;;;;;20.42;62.44;101460.17;;;;-53
2020/09/08 11:30:23;;;;;;;3.63;1.95;;;;;;;20.42;62.46;101456.19;;;;-56
2020/09/08 11:33:23;;;;;;;5.81;1.87;;;;;;;20.41;62.49;101456.18;;;;-53
2020/09/08 11:36:23;;;;;;;4.30;1.85;;;;;;;20.41;62.46;101451.46;;;;-53
2020/09/08 11:39:23;;;;;;;3.31;1.70;;;;;;;20.40;62.48;101447.63;;;;-53
2020/09/08 11:42:23;;;;;;;2.87;1.78;;;;;;;20.41;62.48;101454.55;;;;-54
2020/09/08 11:45:23;;;;;;;2.70;1.57;;;;;;;20.41;62.45;101452.44;;;;-53
2020/09/08 11:48:23;;;;;;;4.74;1.80;;;;;;;20.41;62.47;101449.91;;;;-54
2020/09/08 11:51:23;;;;;;;3.56;1.67;;;;;;;20.41;62.43;101446.90;;;;-53
2020/09/08 11:54:23;;;;;;;3.03;1.90;;;;;;;20.40;62.47;101449.09;;;;-54
2020/09/08 11:57:23;;;;;;;4.52;1.71;;;;;;;20.40;62.48;101449.55;;;;-53
2020/09/08 12:00:23;;;;;;;3.09;1.70;;;;;;;20.40;62.42;101447.30;;;;-53
2020/09/08 12:03:23;;;;;;;2.35;1.79;;;;;;;20.41;62.38;101441.53;;;;-57
2020/09/08 12:06:23;;;;;;;2.94;1.73;;;;;;;20.40;62.55;101432.98;;;;-57
2020/09/08 12:09:23;;;;;;;5.64;1.83;;;;;;;20.41;62.54;101428.09;;;;-53
2020/09/08 12:12:23;;;;;;;4.22;1.78;;;;;;;20.43;62.63;101424.95;;;;-50
2020/09/08 12:15:23;;;;;;;2.37;1.67;;;;;;;20.43;62.65;101422.84;;;;-49
2020/09/08 12:18:23;;;;;;;3.95;1.67;;;;;;;20.44;62.61;101422.47;;;;-49
2020/09/08 12:21:23;;;;;;;4.59;1.83;;;;;;;20.46;62.67;101420.59;;;;-53
2020/09/08 12:24:23;;;;;;;2.37;1.73;;;;;;;20.47;62.53;101421.04;;;;-56
2020/09/08 12:27:23;;;;;;;2.64;1.83;;;;;;;20.47;62.54;101417.86;;;;-53
2020/09/08 12:30:23;;;;;;;4.39;2.10;;;;;;;20.48;62.55;101420.47;;;;-55
2020/09/08 12:33:23;;;;;;;2.67;1.76;;;;;;;20.48;62.48;101418.52;;;;-55
2020/09/08 12:36:23;;;;;;;3.83;1.81;;;;;;;20.49;62.45;101413.58;;;;-54
2020/09/08 12:39:23;;;;;;;3.74;1.66;;;;;;;20.47;62.50;101408.91;;;;-54
2020/09/08 12:42:23;;;;;;;3.58;1.65;;;;;;;20.48;62.46;101403.56;;;;-55
2020/09/08 12:45:23;;;;;;;2.40;1.76;;;;;;;20.47;62.47;101401.01;;;;-54
2020/09/08 12:48:23;;;;;;;3.76;1.75;;;;;;;20.45;62.49;101395.19;;;;-54
2020/09/08 12:51:23;;;;;;;2.01;1.60;;;;;;;20.45;62.48;101394.78;;;;-54
2020/09/08 12:54:23;;;;;;;3.09;1.77;;;;;;;20.45;62.49;101390.38;;;;-54
2020/09/08 12:57:23;;;;;;;2.65;1.72;;;;;;;20.46;62.50;101387.38;;;;-54
2020/09/08 13:00:23;;;;;;;2.41;1.67;;;;;;;20.46;62.49;101381.43;;;;-54
2020/09/08 13:03:23;;;;;;;2.71;1.62;;;;;;;20.45;62.45;101378.98;;;;-53
2020/09/08 13:06:23;;;;;;;2.32;1.57;;;;;;;20.45;62.46;101373.45;;;;-54
2020/09/08 13:09:23;;;;;;;3.04;1.70;;;;;;;20.44;62.52;101372.55;;;;-55
2020/09/08 13:12:23;;;;;;;4.51;1.69;;;;;;;20.45;62.48;101371.58;;;;-55
2020/09/08 13:15:23;;;;;;;2.71;1.60;;;;;;;20.45;62.46;101373.94;;;;-55
2020/09/08 13:18:23;;;;;;;2.34;1.60;;;;;;;20.45;62.48;101368.73;;;;-54
2020/09/08 13:21:23;;;;;;;2.05;1.70;;;;;;;20.45;62.49;101367.83;;;;-55
2020/09/08 13:24:23;;;;;;;2.02;1.51;;;;;;;20.45;62.49;101371.33;;;;-56
2020/09/08 13:27:23;;;;;;;4.41;1.86;;;;;;;20.45;62.51;101369.78;;;;-54
2020/09/08 13:30:23;;;;;;;3.69;1.73;;;;;;;20.44;62.52;101369.67;;;;-54
2020/09/08 13:33:23;;;;;;;2.13;1.73;;;;;;;20.44;62.52;101363.19;;;;-54
2020/09/08 13:36:23;;;;;;;3.94;1.60;;;;;;;20.45;62.56;101364.00;;;;-50
2020/09/08 13:39:23;;;;;;;3.54;1.78;;;;;;;20.46;62.70;101360.26;;;;-51
2020/09/08 13:42:23;;;;;;;5.78;1.80;;;;;;;20.47;62.87;101362.33;;;;-59
2020/09/08 13:45:23;;;;;;;4.42;1.69;;;;;;;20.49;62.98;101355.52;;;;-58
2020/09/08 13:48:23;;;;;;;6.95;1.95;;;;;;;20.51;62.93;101352.95;;;;-58
2020/09/08 13:51:23;;;;;;;4.47;1.80;;;;;;;20.52;62.89;101347.49;;;;-54
2020/09/08 13:54:23;;;;;;;3.75;1.82;;;;;;;20.53;62.88;101342.16;;;;-54
2020/09/08 13:57:23;;;;;;;5.01;1.75;;;;;;;20.56;62.92;101345.20;;;;-49
2020/09/08 14:00:23;;;;;;;6.89;1.87;;;;;;;20.56;62.90;101342.27;;;;-51
2020/09/08 14:03:23;;;;;;;4.81;1.81;;;;;;;20.57;62.84;101339.69;;;;-56
2020/09/08 14:06:23;;;;;;;5.47;1.99;;;;;;;20.59;62.85;101334.55;;;;-58
2020/09/08 14:09:23;;;;;;;3.15;1.75;;;;;;;20.61;62.83;101341.83;;;;-66
2020/09/08 14:12:23;;;;;;;4.89;1.87;;;;;;;20.62;62.86;101338.24;;;;-56
2020/09/08 14:15:23;;;;;;;3.23;1.68;;;;;;;20.62;62.89;101335.47;;;;-50
2020/09/08 14:18:23;;;;;;;5.13;1.70;;;;;;;20.64;62.85;101337.95;;;;-50
2020/09/08 14:21:23;;;;;;;2.83;1.83;;;;;;;20.65;62.86;101335.05;;;;-52
2020/09/08 14:24:23;;;;;;;11.01;2.11;;;;;;;20.66;62.85;101335.70;;;;-54
2020/09/08 14:27:23;;;;;;;3.77;1.70;;;;;;;20.67;62.82;101331.50;;;;-54
2020/09/08 14:30:23;;;;;;;4.03;1.81;;;;;;;20.67;62.84;101330.73;;;;-54
2020/09/08 14:33:23;;;;;;;6.04;1.52;;;;;;;20.67;62.75;101324.81;;;;-51
2020/09/08 14:36:23;;;;;;;4.79;1.87;;;;;;;20.66;62.73;101321.69;;;;-49
2020/09/08 14:39:23;;;;;;;5.10;1.83;;;;;;;20.66;62.71;101321.28;;;;-55
2020/09/08 14:42:23;;;;;;;4.38;1.79;;;;;;;20.66;62.74;101322.02;;;;-54
2020/09/08 14:45:23;;;;;;;2.94;1.80;;;;;;;20.64;62.71;101316.45;;;;-54
2020/09/08 14:48:23;;;;;;;7.12;2.01;;;;;;;20.65;62.75;101319.41;;;;-48
2020/09/08 14:51:23;;;;;;;6.21;2.04;;;;;;;20.67;62.69;101318.84;;;;-51
2020/09/08 14:54:23;;;;;;;7.25;2.02;;;;;;;20.66;62.71;101319.58;;;;-52
2020/09/08 14:57:23;;;;;;;4.17;1.61;;;;;;;20.67;62.66;101315.37;;;;-52
2020/09/08 15:00:23;;;;;;;4.37;1.87;;;;;;;20.65;62.65;101309.06;;;;-53
2020/09/08 15:03:23;;;;;;;2.66;1.75;;;;;;;20.66;62.62;101305.81;;;;-52
2020/09/08 15:06:23;;;;;;;3.85;1.73;;;;;;;20.64;62.64;101298.04;;;;-52
2020/09/08 15:09:23;;;;;;;4.61;1.67;;;;;;;20.64;62.68;101298.69;;;;-50
2020/09/08 15:12:23;;;;;;;4.07;1.65;;;;;;;20.65;62.64;101298.13;;;;-50
2020/09/08 15:15:23;;;;;;;2.81;1.73;;;;;;;20.65;62.65;101295.63;;;;-50
2020/09/08 15:18:23;;;;;;;3.27;1.65;;;;;;;20.65;62.65;101296.00;;;;-50
2020/09/08 15:21:23;;;;;;;3.22;1.75;;;;;;;20.63;62.68;101295.76;;;;-51
2020/09/08 15:24:23;;;;;;;3.22;1.73;;;;;;;20.64;62.65;101295.19;;;;-51
2020/09/08 15:27:24;;;;;;;4.21;1.83;;;;;;;20.64;62.65;101296.33;;;;-51
2020/09/08 15:30:23;;;;;;;2.43;1.60;;;;;;;20.64;62.67;101291.69;;;;-51
2020/09/08 15:33:23;;;;;;;3.71;1.75;;;;;;;20.65;62.62;101288.02;;;;-51
2020/09/08 15:36:23;;;;;;;2.77;1.60;;;;;;;20.64;62.65;101291.28;;;;-51
2020/09/08 15:39:23;;;;;;;3.94;1.64;;;;;;;20.64;62.61;101289.98;;;;-51
2020/09/08 15:42:23;;;;;;;3.94;1.75;;;;;;;20.64;62.65;101283.88;;;;-54
2020/09/08 15:45:23;;;;;;;2.89;1.71;;;;;;;20.65;62.69;101279.91;;;;-52
2020/09/08 15:48:23;;;;;;;3.90;1.83;;;;;;;20.68;62.68;101281.24;;;;-49
2020/09/08 15:51:23;;;;;;;3.69;1.83;;;;;;;20.69;62.80;101273.53;;;;-51
2020/09/08 15:54:23;;;;;;;1.98;1.50;;;;;;;20.71;62.78;101268.92;;;;-44
2020/09/08 15:57:23;;;;;;;3.45;1.53;;;;;;;20.70;62.81;101264.33;;;;-53
2020/09/08 16:00:23;;;;;;;2.63;1.51;;;;;;;20.73;62.86;101260.69;;;;-50
2020/09/08 16:03:23;;;;;;;1.72;1.49;;;;;;;20.73;62.91;101261.91;;;;-53
2020/09/08 16:06:23;;;;;;;3.24;1.66;;;;;;;20.75;62.91;101261.05;;;;-51
2020/09/08 16:09:23;;;;;;;3.27;1.62;;;;;;;20.76;62.89;101260.91;;;;-52
2020/09/08 16:12:23;;;;;;;3.57;1.73;;;;;;;20.76;62.90;101257.58;;;;-45
2020/09/08 16:15:23;;;;;;;2.59;1.65;;;;;;;20.78;62.97;101255.08;;;;-46
2020/09/08 16:18:23;;;;;;;2.77;1.65;;;;;;;20.80;63.09;101252.33;;;;-50
2020/09/08 16:21:23;;;;;;;3.40;1.60;;;;;;;20.81;63.20;101253.63;;;;-53
2020/09/08 16:24:23;;;;;;;1.69;1.57;;;;;;;20.83;63.29;101248.38;;;;-51
2020/09/08 16:27:23;;;;;;;3.87;1.73;;;;;;;20.84;63.41;101249.63;;;;-50
2020/09/08 16:30:23;;;;;;;3.99;1.81;;;;;;;20.85;63.46;101244.65;;;;-52
2020/09/08 16:33:23;;;;;;;3.53;1.55;;;;;;;20.85;63.51;101246.03;;;;-50
2020/09/08 16:36:23;;;;;;;3.81;1.71;;;;;;;20.86;63.48;101238.81;;;;-52
2020/09/08 16:39:23;;;;;;;2.14;1.49;;;;;;;20.88;63.54;101244.87;;;;-56
2020/09/08 16:42:23;;;;;;;3.85;1.55;;;;;;;20.88;63.45;101247.48;;;;-57
2020/09/08 16:45:23;;;;;;;2.85;1.63;;;;;;;20.88;63.33;101248.86;;;;-51